Time;durP1;ratioP1;P1;durP2;ratioP2;P2;SDS_P1;SDS_P2;PMS_P1;PMS_P2;Temp;Humidity;BMP_temperature;BMP_pressure;BME280_temperature;BME280_humidity;BME280_pressure;Samples;Min_cycle;Max_cycle;Signal;HPM_P1;HPM_P2
2022/06/12 00:00:30;;;;;;;5.80;2.60;;;;;;;;;;5017073;28;20046;-83
2022/06/12 00:02:58;;;;;;;5.90;2.90;;;;;;;;;;5020828;28;20042;-82
2022/06/12 00:05:25;;;;;;;4.40;2.78;;;;;;;;;;5004449;28;20064;-82
2022/06/12 00:07:51;;;;;;;5.18;2.63;;;;;;;;;;5020583;28;20044;-83
2022/06/12 00:10:17;;;;;;;4.15;2.80;;;;;;;;;;5014930;28;20120;-82
2022/06/12 00:12:44;;;;;;;5.78;2.80;;;;;;;;;;5021103;28;20515;-82
2022/06/12 00:15:12;;;;;;;4.65;2.75;;;;;;;;;;5022832;28;20042;-82
2022/06/12 00:17:38;;;;;;;;;;;;;;;;;;5002306;28;20616;-82
2022/06/12 00:20:05;;;;;;;8.27;3.45;;;;;;;;;;5010453;28;19945;-82
2022/06/12 00:22:30;;;;;;;5.25;2.92;;;;;;;;;;5016401;28;20034;-82
2022/06/12 00:24:55;;;;;;;7.38;3.45;;;;;;;;;;5024503;28;20037;-82
2022/06/12 00:27:22;;;;;;;5.05;3.08;;;;;;;;;;5020793;28;20064;-82
2022/06/12 00:29:48;;;;;;;5.25;3.00;;;;;;;;;;5007669;28;20427;-82
2022/06/12 00:32:15;;;;;;;6.68;3.03;;;;;;;;;;5003669;28;20034;-82
2022/06/12 00:34:49;;;;;;;6.03;2.90;;;;;;;;;;5002752;28;20124;-82
2022/06/12 00:37:17;;;;;;;5.50;2.92;;;;;;;;;;5001589;28;20179;-82
2022/06/12 00:39:45;;;;;;;5.80;3.30;;;;;;;;;;5019649;28;20030;-82
2022/06/12 00:42:22;;;;;;;6.25;3.03;;;;;;;;;;4995070;28;20038;-82
2022/06/12 00:44:47;;;;;;;;;;;;;;;;;;5018758;28;20433;-82
2022/06/12 00:47:14;;;;;;;5.40;3.33;;;;;;;;;;5015148;28;19959;-82
2022/06/12 00:49:51;;;;;;;5.80;3.28;;;;;;;;;;5012412;28;20375;-82
2022/06/12 00:52:25;;;;;;;6.25;3.05;;;;;;;;;;5023999;28;20057;-82
2022/06/12 00:54:59;;;;;;;5.57;2.90;;;;;;;;;;5014542;28;20444;-82
2022/06/12 00:57:25;;;;;;;5.80;3.38;;;;;;;;;;4997834;28;20045;-82
2022/06/12 00:59:54;;;;;;;6.63;3.42;;;;;;;;;;5001875;28;20129;-82
2022/06/12 01:02:25;;;;;;;5.53;3.45;;;;;;;;;;5017520;28;20034;-82
2022/06/12 01:07:47;;;;;;;6.78;3.47;;;;;;;;;;5017339;28;20048;-82
2022/06/12 01:10:14;;;;;;;5.50;3.20;;;;;;;;;;5016082;28;20092;-82
2022/06/12 01:12:49;;;;;;;5.38;3.35;;;;;;;;;;5037511;28;20042;-82
2022/06/12 01:15:24;;;;;;;5.38;3.15;;;;;;;;;;5002432;28;20493;-82
2022/06/12 01:17:50;;;;;;;5.13;3.40;;;;;;;;;;5022101;28;20400;-82
2022/06/12 01:20:19;;;;;;;5.55;3.25;;;;;;;;;;5018502;28;20033;-82
2022/06/12 01:23:09;;;;;;;5.90;3.30;;;;;;;;;;5021332;28;20584;-82
2022/06/12 01:25:43;;;;;;;7.15;3.65;;;;;;;;;;5014673;28;20504;-82
2022/06/12 01:28:33;;;;;;;6.07;3.60;;;;;;;;;;5016667;28;20115;-82
2022/06/12 01:31:30;;;;;;;5.63;3.38;;;;;;;;;;5019260;28;20046;-79
2022/06/12 01:34:37;;;;;;;8.63;3.80;;;;;;;;;;5022002;28;20630;-80
2022/06/12 01:37:21;;;;;;;7.20;3.25;;;;;;;;;;5036451;28;20037;-79
2022/06/12 01:39:55;;;;;;;5.40;3.40;;;;;;;;;;5036600;28;20477;-79
2022/06/12 01:42:35;;;;;;;7.85;3.97;;;;;;;;;;5020911;28;20738;-79
2022/06/12 01:45:32;;;;;;;6.38;3.83;;;;;;;;;;5004685;28;20037;-79
2022/06/12 01:48:12;;;;;;;6.22;3.75;;;;;;;;;;5021140;28;20038;-81
2022/06/12 01:50:58;;;;;;;5.82;3.92;;;;;;;;;;5016271;28;20045;-79
2022/06/12 01:53:33;;;;;;;6.53;3.85;;;;;;;;;;5009143;28;20089;-81
2022/06/12 01:56:06;;;;;;;8.30;3.92;;;;;;;;;;5003175;28;20460;-81
2022/06/12 01:58:45;;;;;;;6.05;3.45;;;;;;;;;;5019080;28;20545;-80
2022/06/12 02:01:33;;;;;;;7.15;3.97;;;;;;;;;;5005496;28;20174;-80
2022/06/12 02:04:08;;;;;;;5.45;3.85;;;;;;;;;;5011491;28;20037;-82
2022/06/12 02:06:41;;;;;;;5.78;3.40;;;;;;;;;;5021453;28;20034;-81
2022/06/12 02:09:36;;;;;;;6.63;3.75;;;;;;;;;;5008757;28;20033;-80
2022/06/12 02:15:04;;;;;;;7.30;3.90;;;;;;;;;;5027097;28;20163;-81
2022/06/12 02:17:52;;;;;;;5.35;3.63;;;;;;;;;;5034113;28;20451;-80
2022/06/12 02:20:19;;;;;;;7.63;4.00;;;;;;;;;;5019393;28;20128;-81
2022/06/12 02:22:45;;;;;;;6.32;3.85;;;;;;;;;;5000387;28;20037;-81
2022/06/12 02:25:16;;;;;;;6.93;3.90;;;;;;;;;;5014237;28;20540;-81
2022/06/12 02:27:54;;;;;;;6.68;3.95;;;;;;;;;;5009426;28;20041;-80
2022/06/12 02:30:24;;;;;;;5.78;3.67;;;;;;;;;;5022391;28;20026;-80
2022/06/12 02:32:56;;;;;;;6.72;3.70;;;;;;;;;;5019005;28;20053;-80
2022/06/12 02:35:29;;;;;;;6.85;4.10;;;;;;;;;;5015721;28;20053;-80
2022/06/12 02:38:04;;;;;;;6.82;3.53;;;;;;;;;;5002337;28;20485;-81
2022/06/12 02:40:38;;;;;;;8.05;4.18;;;;;;;;;;5020851;28;20037;-81
2022/06/12 02:43:08;;;;;;;6.22;4.07;;;;;;;;;;5013997;28;20076;-81
2022/06/12 02:45:56;;;;;;;5.63;3.60;;;;;;;;;;5019527;28;20111;-81
2022/06/12 02:48:22;;;;;;;7.63;4.30;;;;;;;;;;4995135;28;20121;-81
2022/06/12 02:50:53;;;;;;;6.63;4.03;;;;;;;;;;5015710;28;20172;-81
2022/06/12 02:53:35;;;;;;;5.95;3.88;;;;;;;;;;5030794;28;20120;-80
2022/06/12 02:56:29;;;;;;;5.40;3.63;;;;;;;;;;5012484;28;20034;-81
2022/06/12 02:58:59;;;;;;;5.30;3.42;;;;;;;;;;5009027;28;20034;-81
2022/06/12 03:01:32;;;;;;;6.57;4.10;;;;;;;;;;5001600;28;20033;-81
2022/06/12 03:04:07;;;;;;;6.50;4.40;;;;;;;;;;4998682;28;20116;-81
2022/06/12 03:06:34;;;;;;;6.72;3.95;;;;;;;;;;5019827;28;20033;-81
2022/06/12 03:09:02;;;;;;;5.05;3.78;;;;;;;;;;5017796;28;20128;-81
2022/06/12 03:11:39;;;;;;;6.43;4.50;;;;;;;;;;5000471;28;20103;-82
2022/06/12 03:14:10;;;;;;;6.15;3.55;;;;;;;;;;5013938;28;20518;-81
2022/06/12 03:16:40;;;;;;;6.80;4.00;;;;;;;;;;5012718;28;20112;-81
2022/06/12 03:19:21;;;;;;;6.22;4.07;;;;;;;;;;5004624;28;20540;-80
2022/06/12 03:22:05;;;;;;;9.02;4.45;;;;;;;;;;5012975;28;20104;-80
2022/06/12 03:24:49;;;;;;;5.53;4.05;;;;;;;;;;5010899;28;20037;-81
2022/06/12 03:27:42;;;;;;;6.90;4.03;;;;;;;;;;5016164;28;20516;-80
2022/06/12 03:30:11;;;;;;;6.57;3.90;;;;;;;;;;5012686;28;20037;-80
2022/06/12 03:32:45;;;;;;;6.68;3.72;;;;;;;;;;5013549;28;20073;-82
2022/06/12 03:35:21;;;;;;;6.28;3.67;;;;;;;;;;5019988;28;20485;-81
2022/06/12 03:38:00;;;;;;;5.72;3.40;;;;;;;;;;5017442;28;20536;-80
2022/06/12 03:40:32;;;;;;;6.97;4.32;;;;;;;;;;5015921;28;20733;-81
2022/06/12 03:43:08;;;;;;;5.57;3.65;;;;;;;;;;5016917;28;20517;-81
2022/06/12 03:45:42;;;;;;;6.90;4.13;;;;;;;;;;5017978;28;20036;-80
2022/06/12 03:48:30;;;;;;;6.28;4.25;;;;;;;;;;5017512;28;20076;-80
2022/06/12 03:51:04;;;;;;;7.32;4.22;;;;;;;;;;5001954;28;20122;-81
2022/06/12 03:53:58;;;;;;;6.22;4.18;;;;;;;;;;5008917;28;20200;-81
2022/06/12 04:00:16;;;;;;;7.13;4.30;;;;;;;;;;5015870;28;20045;-81
2022/06/12 04:02:42;;;;;;;5.80;3.90;;;;;;;;;;4998553;28;20049;-82
2022/06/12 04:05:09;;;;;;;6.05;4.13;;;;;;;;;;5017882;28;20409;-80
2022/06/12 04:07:44;;;;;;;9.05;4.22;;;;;;;;;;4996769;28;20050;-81
2022/06/12 04:10:14;;;;;;;4.97;3.75;;;;;;;;;;5007983;28;20204;-80
2022/06/12 04:12:39;;;;;;;5.85;3.75;;;;;;;;;;5008447;28;20412;-86
2022/06/12 04:15:14;;;;;;;6.60;3.83;;;;;;;;;;5019047;28;20033;-84
2022/06/12 04:17:40;;;;;;;6.40;3.65;;;;;;;;;;5004098;28;20041;-87
2022/06/12 04:20:09;;;;;;;4.95;3.70;;;;;;;;;;5000898;28;20087;-85
2022/06/12 04:22:53;;;;;;;7.20;4.00;;;;;;;;;;5018590;28;20034;-85
2022/06/12 04:26:00;;;;;;;7.35;4.00;;;;;;;;;;5014010;28;20462;-84
2022/06/12 04:28:29;;;;;;;5.75;3.90;;;;;;;;;;4963943;28;20035;-84
2022/06/12 04:30:55;;;;;;;5.10;3.67;;;;;;;;;;4945897;28;20031;-85
2022/06/12 04:33:32;;;;;;;7.18;3.67;;;;;;;;;;4968713;28;20037;-86
2022/06/12 04:36:00;;;;;;;6.35;3.70;;;;;;;;;;4993451;28;20041;-84
2022/06/12 04:38:26;;;;;;;;;;;;;;;;;;5010891;28;20548;-83
2022/06/12 04:40:52;;;;;;;7.63;4.57;;;;;;;;;;5013997;28;20019;-81
2022/06/12 04:43:17;;;;;;;8.18;4.70;;;;;;;;;;5004265;28;20398;-83
2022/06/12 04:45:43;;;;;;;5.75;4.60;;;;;;;;;;5017186;28;20034;-82
2022/06/12 04:48:19;;;;;;;8.52;4.85;;;;;;;;;;5014713;28;20488;-83
2022/06/12 04:50:45;;;;;;;8.18;5.20;;;;;;;;;;5023438;28;20137;-83
2022/06/12 04:53:10;;;;;;;7.95;5.80;;;;;;;;;;5013103;28;20540;-83
2022/06/12 04:55:35;;;;;;;7.47;4.82;;;;;;;;;;5008145;28;20124;-88
2022/06/12 04:58:01;;;;;;;7.43;5.35;;;;;;;;;;5018437;28;20030;-88
2022/06/12 05:00:27;;;;;;;7.80;5.13;;;;;;;;;;5022053;28;21886;-91
2022/06/12 05:02:53;;;;;;;8.88;5.63;;;;;;;;;;5002230;28;20033;-90
2022/06/12 05:05:18;;;;;;;8.43;5.40;;;;;;;;;;5020598;28;20393;-90
2022/06/12 05:07:43;;;;;;;11.25;6.05;;;;;;;;;;5008650;28;20497;-90
2022/06/12 05:10:12;;;;;;;11.38;6.28;;;;;;;;;;5002774;28;20037;-89
2022/06/12 05:12:38;;;;;;;8.00;5.88;;;;;;;;;;5015176;28;20067;-89
2022/06/12 05:15:04;;;;;;;8.07;5.80;;;;;;;;;;5007181;28;20033;-89
2022/06/12 05:17:29;;;;;;;8.77;6.03;;;;;;;;;;5003827;28;20536;-89
2022/06/12 05:19:54;;;;;;;6.93;5.22;;;;;;;;;;5019082;28;20117;-89
2022/06/12 05:22:22;;;;;;;7.82;6.03;;;;;;;;;;5019851;28;20957;-88
2022/06/12 05:24:48;;;;;;;6.72;5.18;;;;;;;;;;5019703;28;20044;-88
2022/06/12 05:27:20;;;;;;;7.90;5.13;;;;;;;;;;5008271;28;20494;-88
2022/06/12 05:29:45;;;;;;;7.40;5.20;;;;;;;;;;5016831;28;20067;-87
2022/06/12 05:32:13;;;;;;;7.78;5.28;;;;;;;;;;5021989;28;20040;-91
2022/06/12 05:34:39;;;;;;;6.63;5.28;;;;;;;;;;5019660;28;20524;-87
2022/06/12 05:37:05;;;;;;;9.98;5.75;;;;;;;;;;5003406;28;20064;-86
2022/06/12 05:39:31;;;;;;;8.70;5.88;;;;;;;;;;5003342;28;20124;-86
2022/06/12 05:41:56;;;;;;;8.82;5.85;;;;;;;;;;5019941;28;20045;-85
2022/06/12 05:44:21;;;;;;;7.57;5.65;;;;;;;;;;5021338;28;20045;-86
2022/06/12 05:46:47;;;;;;;10.30;5.28;;;;;;;;;;5023439;28;20034;-87
2022/06/12 05:49:13;;;;;;;9.65;5.78;;;;;;;;;;5000564;28;20045;-87
2022/06/12 05:51:41;;;;;;;9.30;6.07;;;;;;;;;;5005879;28;20038;-81
2022/06/12 05:54:07;;;;;;;7.93;6.13;;;;;;;;;;5007121;28;20080;-82
2022/06/12 05:56:33;;;;;;;8.20;5.70;;;;;;;;;;5017821;28;20038;-82
2022/06/12 05:59:02;;;;;;;8.20;5.70;;;;;;;;;;5022992;28;20122;-82
2022/06/12 06:01:29;;;;;;;9.25;5.80;;;;;;;;;;5019200;28;20073;-82
2022/06/12 06:03:54;;;;;;;7.50;5.57;;;;;;;;;;5023140;28;20041;-83
2022/06/12 06:06:32;;;;;;;9.77;5.43;;;;;;;;;;5018044;28;20392;-82
2022/06/12 06:08:57;;;;;;;8.52;5.38;;;;;;;;;;5002913;28;20041;-83
2022/06/12 06:11:23;;;;;;;8.10;5.85;;;;;;;;;;5006470;28;20033;-83
2022/06/12 06:13:49;;;;;;;7.35;5.70;;;;;;;;;;5016136;28;20044;-83
2022/06/12 06:16:15;;;;;;;7.57;5.45;;;;;;;;;;5022645;28;20483;-82
2022/06/12 06:18:41;;;;;;;8.02;5.53;;;;;;;;;;5016992;28;20068;-83
2022/06/12 06:21:08;;;;;;;9.07;5.57;;;;;;;;;;5023923;28;20057;-82
2022/06/12 06:23:37;;;;;;;8.93;5.53;;;;;;;;;;5014858;28;20036;-82
2022/06/12 06:26:05;;;;;;;8.38;4.93;;;;;;;;;;5006590;28;20034;-86
2022/06/12 06:28:32;;;;;;;9.82;5.15;;;;;;;;;;5014339;28;20037;-82
2022/06/12 06:30:58;;;;;;;6.60;4.85;;;;;;;;;;5000208;28;20034;-84
2022/06/12 06:33:23;;;;;;;9.63;4.60;;;;;;;;;;5007076;28;20438;-83
2022/06/12 06:35:49;;;;;;;6.85;4.20;;;;;;;;;;5012145;28;20053;-83
2022/06/12 06:38:15;;;;;;;5.95;3.90;;;;;;;;;;5007073;28;20128;-83
2022/06/12 06:40:40;;;;;;;6.13;4.18;;;;;;;;;;5017718;28;20124;-86
2022/06/12 06:43:07;;;;;;;6.22;4.30;;;;;;;;;;5007934;28;20030;-83
2022/06/12 06:48:17;;;;;;;7.57;4.57;;;;;;;;;;5018014;28;20052;-85
2022/06/12 06:50:42;;;;;;;5.78;4.38;;;;;;;;;;5005985;28;20050;-84
2022/06/12 06:53:09;;;;;;;7.85;3.92;;;;;;;;;;5006725;28;20038;-84
2022/06/12 06:55:35;;;;;;;8.10;3.90;;;;;;;;;;5012052;28;20038;-84
2022/06/12 06:58:14;;;;;;;6.07;3.95;;;;;;;;;;5007514;28;20300;-82
2022/06/12 07:00:41;;;;;;;6.07;3.95;;;;;;;;;;5006228;28;20086;-89
2022/06/12 07:03:07;;;;;;;6.13;3.10;;;;;;;;;;5012010;28;20073;-87
2022/06/12 07:05:33;;;;;;;5.40;3.50;;;;;;;;;;5017382;28;20548;-87
2022/06/12 07:08:00;;;;;;;6.90;3.58;;;;;;;;;;5019334;28;20034;-88
2022/06/12 07:10:28;;;;;;;5.63;3.30;;;;;;;;;;5017224;28;20048;-88
2022/06/12 07:12:55;;;;;;;;;;;;;;;;;;5009016;28;20049;-88
2022/06/12 07:15:22;;;;;;;7.85;3.75;;;;;;;;;;5015134;28;19921;-87
2022/06/12 07:17:47;;;;;;;5.30;3.22;;;;;;;;;;5016834;28;20418;-87
2022/06/12 07:20:16;;;;;;;5.68;3.20;;;;;;;;;;5010406;28;20044;-88
2022/06/12 07:22:41;;;;;;;4.95;3.00;;;;;;;;;;5018337;28;20049;-87
2022/06/12 07:25:08;;;;;;;7.75;3.95;;;;;;;;;;5014733;28;20037;-87
2022/06/12 07:27:33;;;;;;;6.60;3.80;;;;;;;;;;5004637;28;20033;-87
2022/06/12 07:29:59;;;;;;;5.38;3.40;;;;;;;;;;5001970;28;20480;-85
2022/06/12 07:32:25;;;;;;;6.43;3.75;;;;;;;;;;4999991;28;20038;-85
2022/06/12 07:34:51;;;;;;;5.30;3.08;;;;;;;;;;5005392;28;20037;-86
2022/06/12 07:37:16;;;;;;;7.05;3.05;;;;;;;;;;5003631;28;20048;-81
2022/06/12 07:39:42;;;;;;;4.85;2.85;;;;;;;;;;4996746;28;20042;-81
2022/06/12 07:42:07;;;;;;;7.72;3.20;;;;;;;;;;5017000;28;20030;-81
2022/06/12 07:44:35;;;;;;;4.05;2.80;;;;;;;;;;5018239;28;20037;-81
2022/06/12 07:47:00;;;;;;;4.55;2.75;;;;;;;;;;4997219;28;20052;-81
2022/06/12 07:49:28;;;;;;;4.55;2.83;;;;;;;;;;5005490;28;20396;-81
2022/06/12 07:51:54;;;;;;;;;;;;;;;;;;5015748;28;20033;-81
2022/06/12 07:54:21;;;;;;;4.88;2.67;;;;;;;;;;4998589;28;19917;-80
2022/06/12 07:56:47;;;;;;;4.75;2.20;;;;;;;;;;5014902;28;20048;-81
2022/06/12 07:59:12;;;;;;;6.03;2.60;;;;;;;;;;5003963;28;20029;-82
2022/06/12 08:01:39;;;;;;;6.30;2.50;;;;;;;;;;4996609;28;20373;-81
2022/06/12 08:04:06;;;;;;;4.13;2.10;;;;;;;;;;5010661;28;20125;-81
2022/06/12 08:06:34;;;;;;;4.13;1.92;;;;;;;;;;5015929;28;20034;-81
2022/06/12 08:09:00;;;;;;;4.47;2.17;;;;;;;;;;5004073;28;20480;-81
2022/06/12 08:11:26;;;;;;;4.03;1.85;;;;;;;;;;5015429;28;20068;-81
2022/06/12 08:13:52;;;;;;;4.50;1.90;;;;;;;;;;5015778;28;20460;-81
2022/06/12 08:16:21;;;;;;;4.13;1.90;;;;;;;;;;5016032;28;20053;-81
2022/06/12 08:18:47;;;;;;;3.92;1.80;;;;;;;;;;5008045;28;20156;-81
2022/06/12 08:21:14;;;;;;;4.15;1.88;;;;;;;;;;5015138;28;20485;-82
2022/06/12 08:23:45;;;;;;;8.02;2.05;;;;;;;;;;5008373;28;20099;-82
2022/06/12 08:26:18;;;;;;;4.30;1.67;;;;;;;;;;5007330;28;20080;-81
2022/06/12 08:28:50;;;;;;;3.45;1.40;;;;;;;;;;5017014;28;20066;-81
2022/06/12 08:31:40;;;;;;;3.53;1.45;;;;;;;;;;5017879;28;20037;-81
2022/06/12 08:34:12;;;;;;;2.90;1.20;;;;;;;;;;4993147;28;20401;-82
2022/06/12 08:36:39;;;;;;;4.43;1.50;;;;;;;;;;5001784;28;20056;-82
2022/06/12 08:39:06;;;;;;;4.05;1.52;;;;;;;;;;5013573;28;20141;-82
2022/06/12 08:41:43;;;;;;;2.97;1.20;;;;;;;;;;5007052;28;20056;-81
2022/06/12 08:44:27;;;;;;;;;;;;;;;;;;5015100;28;20033;-81
2022/06/12 08:46:59;;;;;;;3.13;1.10;;;;;;;;;;5018217;28;19914;-79
2022/06/12 08:50:04;;;;;;;4.90;1.17;;;;;;;;;;5010642;28;20653;-81
2022/06/12 08:52:47;;;;;;;3.47;1.13;;;;;;;;;;5007156;28;20038;-81
2022/06/12 08:55:41;;;;;;;4.15;1.10;;;;;;;;;;5017938;28;20065;-81
2022/06/12 08:58:13;;;;;;;4.35;1.35;;;;;;;;;;5039286;28;20461;-82
2022/06/12 09:00:39;;;;;;;3.28;1.02;;;;;;;;;;5020050;28;20044;-82
2022/06/12 09:03:14;;;;;;;3.10;1.10;;;;;;;;;;5012378;28;20132;-81
2022/06/12 09:06:08;;;;;;;4.75;1.10;;;;;;;;;;5007671;28;20276;-83
2022/06/12 09:08:49;;;;;;;3.65;1.02;;;;;;;;;;5004155;28;20509;-79
2022/06/12 09:11:30;;;;;;;2.35;1.00;;;;;;;;;;5001930;28;20944;-81
2022/06/12 09:14:04;;;;;;;4.03;1.20;;;;;;;;;;5036408;28;20175;-80
2022/06/12 09:16:45;;;;;;;4.38;1.20;;;;;;;;;;5036375;28;20051;-79
2022/06/12 09:19:39;;;;;;;4.15;1.20;;;;;;;;;;5039263;28;20033;-80
2022/06/12 09:22:09;;;;;;;5.20;1.10;;;;;;;;;;5027042;28;20098;-81
2022/06/12 09:24:58;;;;;;;3.13;1.30;;;;;;;;;;5036934;28;20110;-82
2022/06/12 09:27:27;;;;;;;4.28;1.52;;;;;;;;;;5020268;28;20033;-79
2022/06/12 09:30:03;;;;;;;4.10;1.55;;;;;;;;;;5039143;28;20120;-79
2022/06/12 09:32:44;;;;;;;4.70;1.52;;;;;;;;;;5017859;28;20119;-79
2022/06/12 09:35:29;;;;;;;5.55;1.70;;;;;;;;;;5018120;28;20041;-81
2022/06/12 09:38:19;;;;;;;4.28;1.67;;;;;;;;;;5025323;28;20523;-82
2022/06/12 09:41:12;;;;;;;4.00;1.50;;;;;;;;;;5034426;28;20480;-82
2022/06/12 09:43:59;;;;;;;5.68;1.60;;;;;;;;;;5009686;28;20041;-81
2022/06/12 09:46:36;;;;;;;3.83;1.40;;;;;;;;;;5013190;28;20049;-80
2022/06/12 09:49:08;;;;;;;4.63;1.50;;;;;;;;;;5015781;28;20425;-83
2022/06/12 09:51:41;;;;;;;5.63;1.45;;;;;;;;;;5013307;28;20512;-79
2022/06/12 09:54:23;;;;;;;4.15;1.40;;;;;;;;;;5006893;28;20517;-79
2022/06/12 09:57:02;;;;;;;5.38;1.80;;;;;;;;;;5016458;28;20041;-82
2022/06/12 09:59:30;;;;;;;4.43;1.50;;;;;;;;;;5002577;28;20076;-81
2022/06/12 10:01:58;;;;;;;4.97;1.70;;;;;;;;;;5012492;28;20034;-81
2022/06/12 10:04:40;;;;;;;3.90;1.30;;;;;;;;;;4997484;28;20494;-82
2022/06/12 10:07:10;;;;;;;4.00;1.23;;;;;;;;;;5001058;28;20069;-81
2022/06/12 10:09:40;;;;;;;4.05;1.40;;;;;;;;;;5017958;28;20596;-81
2022/06/12 10:12:11;;;;;;;3.75;1.23;;;;;;;;;;5023229;28;20396;-82
2022/06/12 10:14:41;;;;;;;3.88;1.40;;;;;;;;;;5005757;28;20371;-82
2022/06/12 10:17:11;;;;;;;5.15;1.20;;;;;;;;;;5005643;28;20842;-82
2022/06/12 10:19:50;;;;;;;4.82;1.30;;;;;;;;;;5005392;28;20052;-83
2022/06/12 10:22:32;;;;;;;3.13;1.10;;;;;;;;;;5014068;28;20044;-82
2022/06/12 10:24:59;;;;;;;3.55;0.95;;;;;;;;;;4999632;28;20037;-80
2022/06/12 10:27:25;;;;;;;3.70;1.00;;;;;;;;;;5016068;28;20355;-82
2022/06/12 10:30:02;;;;;;;2.95;0.90;;;;;;;;;;5014054;28;20693;-81
2022/06/12 10:32:46;;;;;;;3.40;0.95;;;;;;;;;;5016319;28;20456;-80
2022/06/12 10:35:16;;;;;;;3.25;0.82;;;;;;;;;;5013556;28;20041;-82
2022/06/12 10:37:41;;;;;;;6.00;1.10;;;;;;;;;;5016359;28;20037;-81
2022/06/12 10:40:18;;;;;;;6.20;1.00;;;;;;;;;;5016426;28;20493;-81
2022/06/12 10:42:48;;;;;;;5.88;1.15;;;;;;;;;;5005753;28;20489;-80
2022/06/12 10:45:22;;;;;;;4.35;1.02;;;;;;;;;;5014309;28;20033;-80
2022/06/12 10:47:49;;;;;;;3.92;1.00;;;;;;;;;;5015533;28;20125;-80
2022/06/12 10:50:21;;;;;;;3.30;0.90;;;;;;;;;;5016399;28;20068;-80
2022/06/12 10:53:11;;;;;;;4.78;0.90;;;;;;;;;;5013315;28;20382;-80
2022/06/12 10:56:02;;;;;;;3.45;0.82;;;;;;;;;;5013609;28;20045;-80
2022/06/12 10:59:01;;;;;;;4.40;0.80;;;;;;;;;;5000166;28;20030;-80
2022/06/12 11:02:14;;;;;;;6.15;1.38;;;;;;;;;;5014390;28;20401;-80
2022/06/12 11:04:49;;;;;;;5.45;0.90;;;;;;;;;;4973436;28;20056;-80
2022/06/12 11:07:37;;;;;;;2.85;0.88;;;;;;;;;;5014392;28;20042;-81
2022/06/12 11:10:26;;;;;;;3.55;1.00;;;;;;;;;;5019649;28;20037;-80
2022/06/12 11:13:10;;;;;;;1.88;0.60;;;;;;;;;;4989608;28;20033;-80
2022/06/12 11:15:54;;;;;;;3.80;0.90;;;;;;;;;;5003173;28;20124;-81
2022/06/12 11:18:41;;;;;;;4.00;0.70;;;;;;;;;;5015910;28;20044;-81
2022/06/12 11:21:27;;;;;;;3.30;0.90;;;;;;;;;;5031703;28;20121;-80
2022/06/12 11:24:05;;;;;;;3.50;1.00;;;;;;;;;;5025453;28;20048;-81
2022/06/12 11:27:06;;;;;;;4.57;1.02;;;;;;;;;;5017024;28;20041;-81
2022/06/12 11:29:50;;;;;;;5.35;1.05;;;;;;;;;;4972847;28;20157;-81
2022/06/12 11:32:24;;;;;;;3.33;0.85;;;;;;;;;;5009237;28;20607;-81
2022/06/12 11:35:13;;;;;;;3.40;0.90;;;;;;;;;;5021264;28;20099;-81
2022/06/12 11:38:07;;;;;;;3.15;0.98;;;;;;;;;;4996810;28;20042;-82
2022/06/12 11:41:10;;;;;;;3.58;0.98;;;;;;;;;;5001398;28;20042;-80
2022/06/12 11:43:36;;;;;;;3.58;0.88;;;;;;;;;;5035796;28;20037;-80
2022/06/12 11:46:20;;;;;;;4.35;1.02;;;;;;;;;;5007669;28;20036;-81
2022/06/12 11:49:00;;;;;;;3.20;0.85;;;;;;;;;;5034475;28;20045;-81
2022/06/12 11:51:51;;;;;;;3.20;0.80;;;;;;;;;;5015992;28;20555;-82
2022/06/12 11:54:39;;;;;;;4.32;1.05;;;;;;;;;;5017792;28;20029;-81
2022/06/12 11:57:15;;;;;;;3.20;0.93;;;;;;;;;;5021213;28;20038;-83
2022/06/12 11:59:46;;;;;;;2.88;1.00;;;;;;;;;;5027148;28;20511;-82
2022/06/12 12:02:15;;;;;;;3.90;0.90;;;;;;;;;;5038695;28;20036;-82
2022/06/12 12:04:49;;;;;;;2.78;0.80;;;;;;;;;;5038635;28;20445;-81
2022/06/12 12:07:22;;;;;;;4.45;0.73;;;;;;;;;;5041179;28;20540;-83
2022/06/12 12:09:57;;;;;;;3.97;1.15;;;;;;;;;;5026371;28;20037;-81
2022/06/12 12:12:26;;;;;;;3.13;1.10;;;;;;;;;;5037935;28;20091;-80
2022/06/12 12:14:52;;;;;;;3.70;1.25;;;;;;;;;;5012372;28;20715;-81
2022/06/12 12:17:22;;;;;;;4.03;1.10;;;;;;;;;;5015334;28;20033;-83
2022/06/12 12:19:51;;;;;;;4.55;1.20;;;;;;;;;;4992364;28;20190;-83
2022/06/12 12:22:19;;;;;;;4.10;1.15;;;;;;;;;;5021751;28;20037;-81
2022/06/12 12:24:54;;;;;;;3.83;1.20;;;;;;;;;;5018385;28;20065;-83
2022/06/12 12:27:34;;;;;;;5.35;1.13;;;;;;;;;;5005407;28;20064;-81
2022/06/12 12:30:04;;;;;;;3.30;0.88;;;;;;;;;;5033800;28;20087;-81
2022/06/12 12:32:31;;;;;;;4.15;1.05;;;;;;;;;;5007610;28;20040;-83
2022/06/12 12:34:57;;;;;;;4.15;1.00;;;;;;;;;;5020181;28;20041;-82
2022/06/12 12:43:12;;;;;;;4.05;1.20;;;;;;;;;;5029589;28;20090;-80
2022/06/12 12:45:37;;;;;;;4.88;1.20;;;;;;;;;;5020542;28;20034;-82
2022/06/12 12:48:21;;;;;;;3.35;1.10;;;;;;;;;;5025946;28;20550;-81
2022/06/12 12:50:50;;;;;;;6.07;1.20;;;;;;;;;;5002730;28;20041;-80
2022/06/12 12:53:30;;;;;;;3.13;1.23;;;;;;;;;;5025145;28;20048;-81
2022/06/12 12:56:15;;;;;;;4.97;1.25;;;;;;;;;;5004761;28;20926;-80
2022/06/12 12:58:54;;;;;;;4.53;1.10;;;;;;;;;;5008138;28;20037;-81
2022/06/12 13:01:27;;;;;;;5.05;1.52;;;;;;;;;;5026355;28;20497;-80
2022/06/12 13:03:55;;;;;;;7.18;2.50;;;;;;;;;;5037944;28;20092;-82
2022/06/12 13:06:36;;;;;;;3.83;1.30;;;;;;;;;;5011490;28;20125;-80
2022/06/12 13:09:26;;;;;;;5.97;1.20;;;;;;;;;;5038093;28;20040;-80
2022/06/12 13:12:04;;;;;;;7.03;1.50;;;;;;;;;;5022342;28;20029;-81
2022/06/12 13:14:50;;;;;;;3.92;1.30;;;;;;;;;;5037394;28;20041;-80
2022/06/12 13:17:38;;;;;;;3.55;1.00;;;;;;;;;;5037222;28;20053;-80
2022/06/12 13:20:09;;;;;;;5.60;1.45;;;;;;;;;;5039062;28;20075;-81
2022/06/12 13:23:04;;;;;;;5.07;1.52;;;;;;;;;;5035330;28;20147;-83
2022/06/12 13:26:00;;;;;;;7.32;1.10;;;;;;;;;;5015677;28;20492;-82
2022/06/12 13:28:31;;;;;;;4.90;1.50;;;;;;;;;;4986492;28;20485;-82
2022/06/12 13:30:57;;;;;;;4.28;1.20;;;;;;;;;;5001561;28;20121;-81
2022/06/12 13:33:27;;;;;;;4.87;1.17;;;;;;;;;;5001269;28;20033;-83
2022/06/12 13:35:56;;;;;;;4.38;1.23;;;;;;;;;;5014008;28;20564;-81
2022/06/12 13:38:25;;;;;;;3.50;1.10;;;;;;;;;;5006040;28;20065;-81
2022/06/12 13:41:24;;;;;;;4.07;1.25;;;;;;;;;;5022107;28;20382;-81
2022/06/12 13:43:50;;;;;;;4.53;1.55;;;;;;;;;;4979533;28;20034;-84
2022/06/12 13:46:30;;;;;;;3.45;0.90;;;;;;;;;;5016972;28;20493;-80
2022/06/12 13:48:57;;;;;;;4.63;1.13;;;;;;;;;;5022833;28;20052;-81
2022/06/12 13:51:45;;;;;;;6.70;1.05;;;;;;;;;;5017745;28;20222;-80
2022/06/12 13:54:13;;;;;;;4.60;1.20;;;;;;;;;;5030602;28;20092;-81
2022/06/12 13:57:05;;;;;;;3.70;1.00;;;;;;;;;;5016007;28;20073;-81
2022/06/12 13:59:33;;;;;;;4.57;1.33;;;;;;;;;;4992078;28;20045;-81
2022/06/12 14:02:16;;;;;;;5.00;1.20;;;;;;;;;;5006635;28;20033;-80
2022/06/12 14:04:50;;;;;;;4.50;1.23;;;;;;;;;;5016537;28;20627;-80
2022/06/12 14:07:16;;;;;;;3.55;1.08;;;;;;;;;;5005268;28;20037;-81
2022/06/12 14:09:46;;;;;;;4.80;1.05;;;;;;;;;;4987994;28;20076;-82
2022/06/12 14:12:13;;;;;;;4.78;1.00;;;;;;;;;;4999413;28;20407;-80
2022/06/12 14:14:42;;;;;;;5.18;1.05;;;;;;;;;;4997332;28;20041;-81
2022/06/12 14:17:28;;;;;;;2.60;0.80;;;;;;;;;;5001049;28;20049;-82
2022/06/12 14:20:04;;;;;;;6.15;1.20;;;;;;;;;;5014835;28;20999;-81
2022/06/12 14:22:44;;;;;;;3.15;1.02;;;;;;;;;;5034967;28;20090;-81
2022/06/12 14:25:28;;;;;;;6.72;0.98;;;;;;;;;;5002325;28;20496;-81
2022/06/12 14:28:00;;;;;;;4.03;1.00;;;;;;;;;;5019789;28;20098;-81
2022/06/12 14:30:50;;;;;;;2.75;0.88;;;;;;;;;;5018131;28;20042;-81
2022/06/12 14:33:25;;;;;;;3.38;0.90;;;;;;;;;;5003859;28;20677;-81
2022/06/12 14:35:50;;;;;;;3.20;0.80;;;;;;;;;;5014775;28;20049;-81
2022/06/12 14:38:18;;;;;;;3.63;1.13;;;;;;;;;;5021098;28;20033;-81
2022/06/12 14:40:43;;;;;;;3.58;1.10;;;;;;;;;;5000845;28;20519;-81
2022/06/12 14:43:22;;;;;;;3.33;1.02;;;;;;;;;;5026179;28;20037;-81
2022/06/12 14:45:50;;;;;;;4.85;1.15;;;;;;;;;;5034197;28;20032;-82
2022/06/12 14:48:20;;;;;;;3.58;0.70;;;;;;;;;;5018565;28;20091;-81
2022/06/12 14:50:45;;;;;;;3.20;0.93;;;;;;;;;;5005416;28;20120;-81
2022/06/12 14:53:11;;;;;;;4.78;0.90;;;;;;;;;;5000243;28;20136;-82
2022/06/12 14:55:37;;;;;;;2.78;0.90;;;;;;;;;;5012411;28;20124;-81
2022/06/12 14:58:03;;;;;;;3.33;1.00;;;;;;;;;;5005247;28;20501;-81
2022/06/12 15:00:30;;;;;;;4.43;0.88;;;;;;;;;;5005190;28;20040;-82
2022/06/12 15:02:55;;;;;;;3.65;0.90;;;;;;;;;;5021796;28;20041;-81
2022/06/12 15:05:29;;;;;;;3.47;1.08;;;;;;;;;;5015127;28;20042;-81
2022/06/12 15:07:54;;;;;;;3.15;1.02;;;;;;;;;;5017196;28;20030;-81
2022/06/12 15:10:21;;;;;;;3.65;0.90;;;;;;;;;;5010065;28;20052;-81
2022/06/12 15:12:47;;;;;;;6.25;1.05;;;;;;;;;;5000942;28;20030;-81
2022/06/12 15:15:18;;;;;;;5.93;0.93;;;;;;;;;;5020808;28;20072;-81
2022/06/12 15:17:44;;;;;;;3.28;0.98;;;;;;;;;;4998225;28;22061;-83
2022/06/12 15:20:10;;;;;;;5.68;1.02;;;;;;;;;;4999662;28;20034;-80
2022/06/12 15:22:35;;;;;;;2.80;1.05;;;;;;;;;;5005714;28;20168;-81
2022/06/12 15:25:02;;;;;;;3.90;0.88;;;;;;;;;;5001517;28;20045;-82
2022/06/12 15:30:15;;;;;;;5.68;0.93;;;;;;;;;;5018429;28;20133;-81
2022/06/12 15:32:48;;;;;;;3.92;0.90;;;;;;;;;;5010058;28;20429;-83
2022/06/12 15:35:17;;;;;;;6.75;1.08;;;;;;;;;;5016192;28;21165;-80
2022/06/12 15:37:42;;;;;;;2.53;0.80;;;;;;;;;;5021080;28;20041;-77
2022/06/12 15:40:15;;;;;;;3.30;1.00;;;;;;;;;;5012260;28;20489;-77
2022/06/12 15:42:41;;;;;;;3.42;1.10;;;;;;;;;;5026884;28;20037;-77